Time;durP1;ratioP1;P1;durP2;ratioP2;P2;SDS_P1;SDS_P2;PMS_P1;PMS_P2;Temp;Humidity;BMP_temperature;BMP_pressure;BME280_temperature;BME280_humidity;BME280_pressure;Samples;Min_cycle;Max_cycle;Signal;HPM_P1;HPM_P2
2022/04/19 00:01:44;;;;;;;8.97;6.37;;;6.70;99.90;;;;;;5072553;28;20292;-61
2022/04/19 00:04:10;;;;;;;7.87;6.60;;;6.70;99.90;;;;;;5073983;28;20259;-60
2022/04/19 00:06:36;;;;;;;7.77;6.30;;;6.70;99.90;;;;;;5074025;28;20257;-60
2022/04/19 00:09:03;;;;;;;9.17;6.53;;;6.70;99.90;;;;;;5073434;28;20212;-61
2022/04/19 00:11:29;;;;;;;9.23;6.37;;;6.70;99.90;;;;;;5072307;28;20216;-61
2022/04/19 00:13:56;;;;;;;8.23;6.77;;;6.60;99.90;;;;;;5073815;28;20548;-61
2022/04/19 00:16:21;;;;;;;8.37;5.90;;;6.50;99.90;;;;;;5073738;28;20301;-61
2022/04/19 00:18:47;;;;;;;10.33;6.80;;;6.40;99.90;;;;;;5072310;28;20608;-62
2022/04/19 00:21:13;;;;;;;7.77;6.77;;;6.30;99.90;;;;;;5073710;28;20739;-62
2022/04/19 00:23:39;;;;;;;8.27;6.20;;;6.20;99.90;;;;;;5074027;28;20200;-62
2022/04/19 00:26:04;;;;;;;7.50;6.70;;;6.10;99.90;;;;;;5074421;28;20174;-61
2022/04/19 00:28:31;;;;;;;8.17;6.20;;;6.10;99.90;;;;;;5074162;28;20170;-61
2022/04/19 00:30:57;;;;;;;6.73;6.03;;;6.10;99.90;;;;;;5073603;28;20674;-61
2022/04/19 00:33:23;;;;;;;7.30;5.70;;;6.00;99.90;;;;;;5072404;28;20181;-61
2022/04/19 00:35:49;;;;;;;9.43;6.43;;;5.90;99.90;;;;;;5072453;28;20174;-61
2022/04/19 00:38:15;;;;;;;8.17;6.93;;;5.80;99.90;;;;;;5073249;28;20207;-62
2022/04/19 00:40:40;;;;;;;8.63;6.27;;;5.80;99.90;;;;;;5073598;28;20589;-61
2022/04/19 00:43:08;;;;;;;9.20;6.50;;;5.70;99.90;;;;;;5073753;28;20182;-62
2022/04/19 00:45:34;;;;;;;7.53;6.40;;;5.70;99.90;;;;;;5073335;28;20173;-61
2022/04/19 00:48:01;;;;;;;6.87;5.73;;;5.60;99.90;;;;;;5072108;28;20181;-61
2022/04/19 00:50:27;;;;;;;6.43;5.73;;;5.50;99.90;;;;;;5073627;28;20186;-61
2022/04/19 00:52:53;;;;;;;8.33;6.23;;;5.40;99.90;;;;;;5072102;28;20182;-61
2022/04/19 00:55:19;;;;;;;8.33;6.07;;;5.20;99.90;;;;;;5073680;28;20170;-61
2022/04/19 00:57:47;;;;;;;8.63;6.37;;;5.00;99.90;;;;;;5072034;28;20264;-61
2022/04/19 01:00:14;;;;;;;8.53;6.40;;;4.90;99.90;;;;;;5073692;28;20665;-61
2022/04/19 01:02:40;;;;;;;8.27;6.43;;;5.00;99.90;;;;;;5073290;28;20198;-61
2022/04/19 01:05:07;;;;;;;8.83;7.17;;;5.00;99.90;;;;;;5073796;28;20170;-61
2022/04/19 01:07:34;;;;;;;11.60;6.67;;;5.10;99.90;;;;;;5073096;28;20545;-61
2022/04/19 01:10:01;;;;;;;8.57;6.53;;;5.10;99.90;;;;;;5076879;28;20176;-61
2022/04/19 01:15:13;;;;;;;6.80;6.10;;;5.30;99.90;;;;;;5077639;28;20208;-61
2022/04/19 01:17:40;;;;;;;8.10;6.63;;;5.40;99.90;;;;;;5077487;28;20631;-61
2022/04/19 01:20:08;;;;;;;8.33;6.73;;;5.40;99.90;;;;;;5076886;28;20170;-61
2022/04/19 01:22:41;;;;;;;7.63;6.47;;;5.40;99.90;;;;;;5076825;28;20202;-60
2022/04/19 01:25:08;;;;;;;8.00;6.93;;;5.40;99.90;;;;;;5076713;28;20174;-61
2022/04/19 01:27:34;;;;;;;9.83;7.20;;;5.40;99.90;;;;;;5077343;28;20158;-61
2022/04/19 01:30:04;;;;;;;11.57;7.20;;;5.40;99.90;;;;;;5076769;28;20205;-61
2022/04/19 01:32:30;;;;;;;9.53;7.03;;;5.40;99.90;;;;;;5077141;28;20617;-60
2022/04/19 01:35:10;;;;;;;8.83;6.93;;;5.40;99.90;;;;;;5077097;28;20240;-61
2022/04/19 01:37:39;;;;;;;9.33;6.90;;;5.30;99.90;;;;;;5075573;28;20595;-60
2022/04/19 01:40:18;;;;;;;8.23;6.30;;;5.10;99.90;;;;;;5076626;28;20178;-60
2022/04/19 01:42:52;;;;;;;8.93;6.77;;;5.10;99.90;;;;;;5075823;28;20205;-60
2022/04/19 01:45:23;;;;;;;7.67;6.87;;;5.00;99.90;;;;;;5077073;28;20170;-60
2022/04/19 01:47:53;;;;;;;8.23;6.47;;;5.00;99.90;;;;;;5077704;28;20162;-61
2022/04/19 01:50:21;;;;;;;9.53;7.07;;;4.90;99.90;;;;;;5076623;28;20648;-61
2022/04/19 01:52:49;;;;;;;8.13;6.80;;;4.90;99.90;;;;;;5076767;28;20209;-60
2022/04/19 01:55:17;;;;;;;9.90;7.10;;;4.90;99.90;;;;;;5076342;28;20185;-60
2022/04/19 01:57:53;;;;;;;9.40;7.13;;;4.90;99.90;;;;;;5076600;28;20174;-60
2022/04/19 02:00:19;;;;;;;11.50;7.00;;;5.00;99.90;;;;;;5076475;28;20201;-59
2022/04/19 02:02:46;;;;;;;8.77;7.00;;;4.90;99.90;;;;;;5076531;28;20193;-61
2022/04/19 02:05:13;;;;;;;9.47;7.57;;;4.90;99.90;;;;;;5076425;28;20170;-60
2022/04/19 02:07:44;;;;;;;11.80;7.10;;;4.90;99.90;;;;;;5075962;28;20244;-61
2022/04/19 02:10:11;;;;;;;10.20;7.53;;;4.80;99.90;;;;;;5075673;28;20225;-61
2022/04/19 02:12:38;;;;;;;8.67;7.00;;;4.70;99.90;;;;;;5075931;28;20177;-62
2022/04/19 02:15:05;;;;;;;9.17;7.13;;;4.50;99.90;;;;;;5076016;28;20218;-61
2022/04/19 02:17:31;;;;;;;9.53;7.80;;;4.30;99.90;;;;;;5075899;28;20173;-61
2022/04/19 02:20:05;;;;;;;9.60;7.60;;;4.30;99.90;;;;;;5074911;28;20223;-60
2022/04/19 02:22:32;;;;;;;11.40;7.50;;;4.30;99.90;;;;;;5075683;28;20209;-61
2022/04/19 02:24:59;;;;;;;10.53;7.00;;;4.40;99.90;;;;;;5075593;28;20166;-63
2022/04/19 02:27:30;;;;;;;12.20;7.73;;;4.40;99.90;;;;;;5075664;28;20176;-60
2022/04/19 02:29:56;;;;;;;10.40;7.73;;;4.40;99.90;;;;;;5075782;28;20184;-61
2022/04/19 02:32:25;;;;;;;9.30;7.53;;;4.30;99.90;;;;;;5075557;28;20170;-61
2022/04/19 02:34:51;;;;;;;12.43;8.30;;;4.30;99.90;;;;;;5075488;28;20173;-60
2022/04/19 02:37:19;;;;;;;10.60;8.07;;;4.10;99.90;;;;;;5075538;28;20185;-62
2022/04/19 02:39:48;;;;;;;10.87;7.83;;;4.00;99.90;;;;;;5075026;28;20182;-60
2022/04/19 02:42:14;;;;;;;8.23;7.23;;;4.00;99.90;;;;;;5075107;28;20197;-61
2022/04/19 02:44:40;;;;;;;11.50;8.30;;;4.00;99.90;;;;;;5073965;28;20174;-61
2022/04/19 02:47:06;;;;;;;11.77;8.10;;;3.90;99.90;;;;;;5075143;28;20170;-61
2022/04/19 02:49:33;;;;;;;10.10;7.70;;;3.90;99.90;;;;;;5075464;28;20257;-64
2022/04/19 02:51:58;;;;;;;8.40;7.50;;;3.80;99.90;;;;;;5075084;28;20236;-61
2022/04/19 02:54:24;;;;;;;8.37;7.47;;;3.80;99.90;;;;;;5075043;28;20173;-61
2022/04/19 02:56:50;;;;;;;10.97;7.10;;;3.80;99.90;;;;;;5073617;28;20642;-61
2022/04/19 02:59:16;;;;;;;8.10;6.97;;;3.80;99.90;;;;;;5075165;28;20174;-60
2022/04/19 03:01:42;;;;;;;7.93;7.13;;;3.80;99.90;;;;;;5074945;28;20201;-60
2022/04/19 03:04:08;;;;;;;10.77;7.03;;;3.80;99.90;;;;;;5075321;28;20194;-61
2022/04/19 03:06:33;;;;;;;13.73;7.83;;;3.90;99.90;;;;;;5074771;28;20253;-61
2022/04/19 03:08:59;;;;;;;8.97;7.00;;;3.90;99.90;;;;;;5074417;28;20641;-61
2022/04/19 03:11:25;;;;;;;8.93;7.17;;;3.90;99.90;;;;;;5074803;28;20278;-60
2022/04/19 03:13:51;;;;;;;8.33;7.13;;;3.80;99.90;;;;;;5074779;28;20177;-61
2022/04/19 03:16:16;;;;;;;8.40;7.47;;;3.80;99.90;;;;;;5073234;28;20174;-61
2022/04/19 03:18:42;;;;;;;8.13;7.20;;;3.80;99.90;;;;;;5074725;28;20173;-61
2022/04/19 03:21:12;;;;;;;9.67;7.23;;;3.70;99.90;;;;;;5074574;28;20247;-61
2022/04/19 03:29:07;;;;;;;9.33;7.47;;;3.70;99.90;;;;;;5074808;28;20165;-61
2022/04/19 03:31:34;;;;;;;8.60;7.50;;;3.70;99.90;;;;;;5073564;28;20201;-61
2022/04/19 03:34:01;;;;;;;11.93;7.50;;;3.70;99.90;;;;;;5074267;28;20166;-60
2022/04/19 03:36:26;;;;;;;9.47;7.57;;;3.70;99.90;;;;;;5074172;28;20181;-61
2022/04/19 03:38:53;;;;;;;10.13;8.20;;;3.80;99.90;;;;;;5072530;28;20190;-62
2022/04/19 03:41:19;;;;;;;11.87;7.90;;;3.70;99.90;;;;;;5074099;28;20197;-62
2022/04/19 03:43:45;;;;;;;11.33;7.90;;;3.70;99.90;;;;;;5074497;28;20201;-61
2022/04/19 03:46:11;;;;;;;9.77;7.90;;;3.70;99.90;;;;;;5074385;28;20170;-63
2022/04/19 03:48:37;;;;;;;12.17;8.47;;;3.70;99.90;;;;;;5073985;28;20176;-61
2022/04/19 03:51:03;;;;;;;12.20;7.57;;;3.60;99.90;;;;;;5073944;28;20215;-63
2022/04/19 03:53:32;;;;;;;11.40;7.87;;;3.50;99.90;;;;;;5072417;28;20178;-63
2022/04/19 03:55:58;;;;;;;10.73;7.70;;;3.50;99.90;;;;;;5074267;28;20610;-61
2022/04/19 03:58:26;;;;;;;15.30;9.03;;;3.50;99.90;;;;;;5074083;28;20178;-61
2022/04/19 04:00:53;;;;;;;10.97;8.30;;;3.40;99.90;;;;;;5073661;28;20193;-61
2022/04/19 04:03:19;;;;;;;10.03;7.57;;;3.30;99.90;;;;;;5074266;28;20197;-61
2022/04/19 04:05:45;;;;;;;10.47;7.97;;;3.30;99.90;;;;;;5073874;28;20170;-60
2022/04/19 04:08:11;;;;;;;11.83;8.10;;;3.30;99.90;;;;;;5073941;28;20181;-61
2022/04/19 04:10:36;;;;;;;11.10;8.33;;;3.40;99.90;;;;;;5072020;28;20205;-61
2022/04/19 04:13:04;;;;;;;9.83;7.50;;;3.40;99.90;;;;;;5074298;28;20181;-62
2022/04/19 04:15:30;;;;;;;10.50;7.13;;;3.30;99.90;;;;;;5073737;28;20170;-60
2022/04/19 04:17:56;;;;;;;10.63;7.47;;;3.30;99.90;;;;;;5073550;28;20708;-60
2022/04/19 04:20:21;;;;;;;8.13;7.23;;;3.20;99.90;;;;;;5072452;28;20201;-61
2022/04/19 04:22:47;;;;;;;13.70;7.60;;;3.10;99.90;;;;;;5072248;28;20197;-60
2022/04/19 04:25:13;;;;;;;12.60;7.83;;;3.00;99.90;;;;;;5073457;28;20654;-60
2022/04/19 04:27:39;;;;;;;8.57;7.60;;;2.80;99.90;;;;;;5074091;28;20162;-61
2022/04/19 04:30:06;;;;;;;9.20;7.80;;;2.80;99.90;;;;;;5073831;28;20595;-60
2022/04/19 04:32:32;;;;;;;13.23;9.40;;;2.80;99.90;;;;;;5073826;28;20256;-61
2022/04/19 04:34:58;;;;;;;10.60;7.50;;;2.80;99.90;;;;;;5073749;28;20235;-61
2022/04/19 04:37:23;;;;;;;10.50;7.70;;;2.80;99.90;;;;;;5073220;28;20512;-60
2022/04/19 04:39:49;;;;;;;14.53;9.13;;;2.90;99.90;;;;;;5072032;28;20177;-61
2022/04/19 04:42:15;;;;;;;11.60;8.77;;;3.00;99.90;;;;;;5073318;28;20198;-60
2022/04/19 04:44:41;;;;;;;16.40;8.47;;;2.90;99.90;;;;;;5077041;28;20203;-60
2022/04/19 04:49:52;;;;;;;10.13;7.80;;;2.80;99.90;;;;;;5077759;28;20204;-61
2022/04/19 04:52:18;;;;;;;9.40;7.50;;;2.70;99.90;;;;;;5077055;28;20193;-62
2022/04/19 04:54:44;;;;;;;11.10;8.30;;;2.70;99.90;;;;;;5075518;28;20653;-60
2022/04/19 04:57:10;;;;;;;9.33;7.77;;;2.70;99.90;;;;;;5077053;28;20693;-60
2022/04/19 04:59:37;;;;;;;10.83;8.20;;;2.70;99.90;;;;;;5077006;28;20176;-60
2022/04/19 05:02:04;;;;;;;9.53;7.93;;;2.70;99.90;;;;;;5076783;28;20192;-60
2022/04/19 05:04:30;;;;;;;10.80;8.37;;;2.70;99.90;;;;;;5077188;28;20245;-60
2022/04/19 05:06:56;;;;;;;11.27;8.70;;;2.70;99.90;;;;;;5076913;28;20256;-60
2022/04/19 05:09:21;;;;;;;13.57;8.63;;;2.80;99.90;;;;;;5076587;28;20204;-60
2022/04/19 05:11:50;;;;;;;10.87;8.23;;;2.90;99.90;;;;;;5076663;28;20216;-61
2022/04/19 05:14:16;;;;;;;10.17;8.13;;;3.00;99.90;;;;;;5076696;28;20178;-61
2022/04/19 05:16:42;;;;;;;14.03;7.67;;;2.90;99.90;;;;;;5075483;28;20631;-61
2022/04/19 05:19:09;;;;;;;11.03;8.20;;;3.00;99.90;;;;;;5076596;28;20176;-60
2022/04/19 05:21:37;;;;;;;10.90;8.10;;;3.00;99.90;;;;;;5076413;28;20658;-60
2022/04/19 05:24:04;;;;;;;13.20;8.37;;;3.10;99.90;;;;;;5074922;28;20206;-61
2022/04/19 05:26:30;;;;;;;14.07;8.13;;;3.10;99.90;;;;;;5076321;28;20522;-61
2022/04/19 05:28:56;;;;;;;11.57;8.77;;;3.20;99.90;;;;;;5076395;28;20256;-60
2022/04/19 05:31:22;;;;;;;14.07;8.77;;;3.30;99.90;;;;;;5076293;28;20190;-61
2022/04/19 05:33:48;;;;;;;12.43;8.40;;;3.50;99.90;;;;;;5076367;28;20545;-60
2022/04/19 05:36:14;;;;;;;12.07;7.90;;;3.60;99.90;;;;;;5074959;28;20525;-61
2022/04/19 05:38:39;;;;;;;10.10;8.53;;;3.70;99.90;;;;;;5076234;28;20182;-61
2022/04/19 05:41:05;;;;;;;11.57;8.10;;;3.80;99.90;;;;;;5075919;28;20202;-60
2022/04/19 05:43:31;;;;;;;11.83;7.73;;;4.00;99.90;;;;;;5076353;28;20685;-62
2022/04/19 05:45:58;;;;;;;14.23;8.63;;;4.10;99.90;;;;;;5076374;28;20166;-61
2022/04/19 05:48:24;;;;;;;10.80;7.93;;;4.10;99.90;;;;;;5076383;28;20170;-61
2022/04/19 05:50:51;;;;;;;9.83;7.77;;;4.30;99.90;;;;;;5076435;28;20654;-63
2022/04/19 05:53:17;;;;;;;10.53;7.73;;;4.40;99.90;;;;;;5076483;28;20267;-61
2022/04/19 05:55:42;;;;;;;12.13;8.23;;;4.50;99.90;;;;;;5074667;28;20695;-61
2022/04/19 05:58:08;;;;;;;9.90;7.93;;;4.60;99.90;;;;;;5076009;28;20178;-61
2022/04/19 06:00:34;;;;;;;11.70;8.73;;;4.70;99.90;;;;;;5076147;28;20201;-62
2022/04/19 06:05:44;;;;;;;10.10;8.43;;;5.00;99.90;;;;;;5075887;28;20279;-61
2022/04/19 06:08:09;;;;;;;11.83;8.50;;;5.20;99.90;;;;;;5075855;28;20174;-60
2022/04/19 06:10:35;;;;;;;10.37;8.50;;;5.30;99.90;;;;;;5075497;28;20205;-61
2022/04/19 06:13:01;;;;;;;11.97;8.87;;;5.40;99.90;;;;;;5075948;28;20173;-62
2022/04/19 06:15:26;;;;;;;12.67;8.90;;;5.50;99.90;;;;;;5075621;28;20170;-60
2022/04/19 06:17:52;;;;;;;13.50;8.50;;;5.70;99.90;;;;;;5075632;28;20173;-62
2022/04/19 06:20:18;;;;;;;11.77;8.87;;;5.80;99.90;;;;;;5075477;28;20335;-61
2022/04/19 06:22:44;;;;;;;11.40;8.47;;;5.90;99.90;;;;;;5075895;28;20193;-61
2022/04/19 06:25:10;;;;;;;13.13;9.07;;;6.10;99.90;;;;;;5075193;28;20170;-61
2022/04/19 06:27:36;;;;;;;13.20;9.50;;;6.20;99.90;;;;;;5075280;28;20250;-61
2022/04/19 06:30:04;;;;;;;11.57;8.63;;;6.30;99.90;;;;;;5075128;28;20292;-61
2022/04/19 06:32:29;;;;;;;15.40;8.37;;;6.40;99.90;;;;;;5075307;28;20249;-61
2022/04/19 06:34:55;;;;;;;11.93;9.37;;;6.50;99.90;;;;;;5075822;28;20206;-62
2022/04/19 06:37:22;;;;;;;13.23;8.43;;;6.60;99.90;;;;;;5075515;28;20242;-61
2022/04/19 06:39:48;;;;;;;11.67;8.90;;;6.70;99.90;;;;;;5075147;28;20174;-61
2022/04/19 06:42:14;;;;;;;12.80;8.47;;;6.80;99.90;;;;;;5075046;28;20194;-61
2022/04/19 06:44:40;;;;;;;10.50;7.87;;;7.00;99.90;;;;;;5075075;28;20641;-60
2022/04/19 06:47:07;;;;;;;10.00;8.27;;;7.10;99.90;;;;;;5075373;28;20512;-63
2022/04/19 06:49:33;;;;;;;10.67;8.80;;;7.30;99.90;;;;;;5075349;28;20173;-62
2022/04/19 06:51:59;;;;;;;12.47;8.50;;;7.40;99.90;;;;;;5073927;28;20213;-61
2022/04/19 06:54:25;;;;;;;16.43;9.30;;;7.50;99.90;;;;;;5074938;28;20698;-62
2022/04/19 06:56:51;;;;;;;13.83;9.07;;;7.60;99.90;;;;;;5074923;28;20177;-61
2022/04/19 06:59:17;;;;;;;14.13;9.63;;;7.70;99.90;;;;;;5074878;28;20166;-63
2022/04/19 07:01:43;;;;;;;13.17;9.53;;;7.80;99.90;;;;;;5073676;28;20198;-61
2022/04/19 07:04:10;;;;;;;12.00;9.40;;;7.90;99.90;;;;;;5074012;28;20205;-62
2022/04/19 07:06:36;;;;;;;15.07;9.07;;;8.00;99.90;;;;;;5075030;28;20170;-62
2022/04/19 07:09:02;;;;;;;10.40;8.47;;;8.20;99.90;;;;;;5074780;28;20193;-62
2022/04/19 07:11:28;;;;;;;11.10;8.17;;;8.40;99.90;;;;;;5074731;28;20202;-62
2022/04/19 07:13:55;;;;;;;11.73;8.73;;;8.50;99.90;;;;;;5074756;28;20178;-63
2022/04/19 07:16:20;;;;;;;11.30;8.37;;;8.70;99.90;;;;;;5075144;28;20619;-62
2022/04/19 07:18:46;;;;;;;10.20;8.20;;;8.90;99.90;;;;;;5074675;28;20184;-63
2022/04/19 07:26:47;;;;;;;11.07;8.10;;;9.50;99.90;;;;;;5074793;28;20166;-61
2022/04/19 07:29:18;;;;;;;12.57;8.83;;;9.60;99.90;;;;;;5073226;28;20228;-62
2022/04/19 07:31:46;;;;;;;13.13;8.90;;;9.70;99.90;;;;;;5074730;28;20198;-62
2022/04/19 07:34:12;;;;;;;15.87;8.50;;;9.80;99.90;;;;;;5075664;28;20182;-63
2022/04/19 07:36:40;;;;;;;12.87;8.83;;;10.10;99.90;;;;;;5075681;28;20598;-62
2022/04/19 07:39:10;;;;;;;11.83;8.13;;;10.20;99.90;;;;;;5075529;28;20185;-61
2022/04/19 07:41:39;;;;;;;12.77;8.53;;;10.40;99.90;;;;;;5076764;28;20202;-61
2022/04/19 07:44:06;;;;;;;11.00;8.17;;;10.50;99.90;;;;;;5075045;28;20206;-62
2022/04/19 07:46:32;;;;;;;10.87;7.83;;;10.60;99.90;;;;;;5074370;28;20177;-63
2022/04/19 07:48:58;;;;;;;10.93;7.07;;;10.70;99.90;;;;;;5072805;28;20178;-63
2022/04/19 07:51:24;;;;;;;9.77;7.93;;;10.80;99.90;;;;;;5074157;28;20194;-61
2022/04/19 07:53:51;;;;;;;11.50;8.23;;;10.90;99.90;;;;;;5074264;28;20173;-61
2022/04/19 07:56:17;;;;;;;11.03;8.40;;;10.90;99.90;;;;;;5073714;28;20232;-62
2022/04/19 07:58:45;;;;;;;13.90;8.13;;;11.10;99.90;;;;;;5074096;28;20158;-62
2022/04/19 08:01:11;;;;;;;11.03;8.00;;;11.20;99.90;;;;;;5074189;28;20608;-62
2022/04/19 08:03:37;;;;;;;10.97;8.57;;;11.30;99.90;;;;;;5072372;28;20208;-61
2022/04/19 08:06:03;;;;;;;11.67;8.47;;;11.50;99.90;;;;;;5072415;28;20173;-62
2022/04/19 08:08:28;;;;;;;12.37;8.30;;;11.60;99.90;;;;;;5073606;28;20618;-62
2022/04/19 08:10:54;;;;;;;12.83;8.00;;;11.70;99.90;;;;;;5073254;28;20630;-62
2022/04/19 08:13:20;;;;;;;12.37;8.63;;;11.90;99.90;;;;;;5073920;28;20173;-62
2022/04/19 08:15:46;;;;;;;12.53;8.37;;;12.10;99.90;;;;;;5073894;28;20220;-62
2022/04/19 08:18:13;;;;;;;10.07;7.70;;;12.30;99.90;;;;;;5072959;28;20169;-62
2022/04/19 08:20:40;;;;;;;10.17;7.87;;;12.50;99.90;;;;;;5073407;28;20221;-62
2022/04/19 08:23:07;;;;;;;9.17;7.10;;;12.90;99.90;;;;;;5073411;28;20193;-61
2022/04/19 08:25:37;;;;;;;9.80;7.43;;;13.90;99.90;;;;;;5073366;28;20203;-62
2022/04/19 08:28:03;;;;;;;8.88;6.15;;;15.30;99.90;;;;;;5073674;28;20596;-61
2022/04/19 08:30:29;;;;;;;7.90;6.78;;;16.80;99.90;;;;;;5072080;28;20218;-62
2022/04/19 08:32:55;;;;;;;8.48;6.25;;;18.10;99.90;;;;;;5073318;28;20173;-62
2022/04/19 08:35:21;;;;;;;8.93;6.45;;;19.20;99.90;;;;;;5073507;28;20178;-62
2022/04/19 08:37:47;;;;;;;15.85;6.10;;;20.10;99.90;;;;;;5073190;28;20188;-62
2022/04/19 08:40:14;;;;;;;8.43;6.68;;;20.50;99.90;;;;;;5073177;28;20343;-62
2022/04/19 08:42:41;;;;;;;14.25;6.20;;;20.50;99.90;;;;;;5073094;28;20320;-62
2022/04/19 08:45:09;;;;;;;8.13;6.53;;;20.60;99.90;;;;;;5072167;28;20595;-63
2022/04/19 08:47:39;;;;;;;8.80;6.80;;;20.70;99.90;;;;;;5073173;28;20245;-63
2022/04/19 08:50:09;;;;;;;9.57;6.82;;;21.00;99.90;;;;;;5072999;28;20219;-62
2022/04/19 08:52:35;;;;;;;9.05;6.22;;;20.80;99.90;;;;;;5073085;28;20661;-63
2022/04/19 08:57:45;;;;;;;7.70;6.28;;;21.10;99.90;;;;;;5073717;28;20632;-63
2022/04/19 09:00:12;;;;;;;9.30;6.80;;;21.10;99.90;;;;;;5072996;28;20252;-66
2022/04/19 09:02:38;;;;;;;9.05;6.53;;;21.30;99.90;;;;;;5073669;28;20654;-66
2022/04/19 09:05:26;;;;;;;8.50;6.60;;;21.40;99.90;;;;;;5073012;28;20184;-63
2022/04/19 09:07:54;;;;;;;9.73;6.57;;;21.40;99.90;;;;;;5071831;28;20182;-62
2022/04/19 09:10:30;;;;;;;10.10;7.10;;;21.30;99.90;;;;;;5072700;28;20221;-62
2022/04/19 09:13:05;;;;;;;9.43;6.20;;;21.30;99.90;;;;;;5073087;28;20577;-62
2022/04/19 09:15:31;;;;;;;9.52;6.70;;;21.20;99.90;;;;;;5073282;28;20295;-62
2022/04/19 09:17:57;;;;;;;8.40;6.15;;;20.80;99.90;;;;;;5071664;28;20595;-62
2022/04/19 09:20:23;;;;;;;8.27;6.20;;;20.50;99.90;;;;;;5072832;28;20697;-62
2022/04/19 09:23:06;;;;;;;10.25;6.97;;;20.20;99.90;;;;;;5072876;28;20229;-61
2022/04/19 09:25:33;;;;;;;9.02;6.25;;;19.90;99.90;;;;;;5072622;28;20165;-62
2022/04/19 09:28:00;;;;;;;9.15;5.88;;;19.70;99.90;;;;;;5073051;28;20163;-62
2022/04/19 09:30:27;;;;;;;8.38;5.88;;;19.60;99.90;;;;;;5075489;28;20669;-62
2022/04/19 09:33:24;;;;;;;8.23;5.85;;;19.50;99.90;;;;;;5076786;28;20182;-62
2022/04/19 09:35:55;;;;;;;7.47;5.80;;;19.20;99.90;;;;;;5076805;28;20253;-62
2022/04/19 09:38:33;;;;;;;8.82;6.18;;;18.60;99.90;;;;;;5076880;28;20200;-62
2022/04/19 09:40:59;;;;;;;10.60;6.95;;;18.50;99.90;;;;;;5076028;28;20193;-62
2022/04/19 09:43:24;;;;;;;8.55;6.05;;;18.30;99.90;;;;;;5076240;28;20781;-62
2022/04/19 09:45:51;;;;;;;10.52;6.38;;;18.20;99.90;;;;;;5075551;28;20180;-62
2022/04/19 09:48:19;;;;;;;9.65;5.95;;;18.20;99.90;;;;;;5077249;28;20253;-62
2022/04/19 09:51:02;;;;;;;8.27;5.40;;;18.20;99.90;;;;;;5075413;28;20197;-61
2022/04/19 09:53:38;;;;;;;11.90;5.93;;;17.90;99.90;;;;;;5076714;28;20154;-61
2022/04/19 09:56:11;;;;;;;11.85;6.43;;;17.90;99.90;;;;;;5076391;28;20574;-61
2022/04/19 09:58:38;;;;;;;10.45;6.07;;;17.80;99.90;;;;;;5076703;28;20162;-63
2022/04/19 10:01:05;;;;;;;10.27;5.57;;;18.00;99.90;;;;;;5075395;28;20207;-62
2022/04/19 10:09:04;;;;;;;7.45;5.22;;;18.20;99.90;;;;;;5076027;28;20541;-62
2022/04/19 10:11:31;;;;;;;8.73;5.93;;;18.10;99.90;;;;;;5075700;28;20205;-61
2022/04/19 10:14:00;;;;;;;7.93;5.93;;;18.10;99.90;;;;;;5075865;28;20185;-61
2022/04/19 10:16:28;;;;;;;12.77;6.35;;;18.00;99.90;;;;;;5075735;28;20261;-62
2022/04/19 10:18:54;;;;;;;10.60;6.55;;;18.00;99.90;;;;;;5075562;28;20652;-62
2022/04/19 10:21:33;;;;;;;11.18;6.82;;;18.20;99.90;;;;;;5075502;28;20219;-62
2022/04/19 10:24:13;;;;;;;11.20;6.35;;;18.20;99.90;;;;;;5074240;28;20194;-62
2022/04/19 10:26:51;;;;;;;11.32;5.97;;;18.10;99.90;;;;;;5075467;28;20162;-62
2022/04/19 10:29:22;;;;;;;8.70;5.22;;;18.10;99.90;;;;;;5075739;28;20153;-62
2022/04/19 10:31:54;;;;;;;8.38;4.93;;;18.10;99.90;;;;;;5075570;28;20218;-61
2022/04/19 10:34:25;;;;;;;9.98;6.15;;;18.00;99.90;;;;;;5074008;28;20204;-61
2022/04/19 10:36:54;;;;;;;8.05;5.68;;;18.10;99.90;;;;;;5074334;28;20553;-62
2022/04/19 10:39:22;;;;;;;9.43;5.30;;;18.10;99.90;;;;;;5075076;28;20178;-62
2022/04/19 10:41:56;;;;;;;9.07;5.30;;;18.10;99.90;;;;;;5074225;28;20666;-62
2022/04/19 10:44:36;;;;;;;8.48;5.68;;;18.00;99.90;;;;;;5075461;28;20590;-62
2022/04/19 10:47:19;;;;;;;7.93;5.40;;;18.00;99.90;;;;;;5075452;28;20162;-61
2022/04/19 10:50:03;;;;;;;7.95;5.50;;;18.20;99.90;;;;;;5075353;28;20154;-61
2022/04/19 10:52:43;;;;;;;9.23;5.45;;;18.20;99.90;;;;;;5075101;28;20153;-62
2022/04/19 10:55:10;;;;;;;7.80;5.28;;;18.40;99.90;;;;;;5075450;28;20578;-62
2022/04/19 11:00:34;;;;;;;7.22;5.25;;;18.50;99.90;;;;;;5075421;28;20197;-62
2022/04/19 11:03:13;;;;;;;10.70;6.55;;;18.50;99.90;;;;;;5073570;28;20201;-64
2022/04/19 11:05:43;;;;;;;10.02;6.22;;;18.50;99.90;;;;;;5074834;28;20641;-61
2022/04/19 11:08:30;;;;;;;8.65;6.18;;;18.60;99.90;;;;;;5075321;28;20292;-63
2022/04/19 11:10:55;;;;;;;9.02;6.10;;;18.70;99.90;;;;;;5074358;28;20237;-61
2022/04/19 11:13:34;;;;;;;9.25;6.18;;;18.80;99.90;;;;;;5074534;28;20202;-62
2022/04/19 11:16:08;;;;;;;9.80;5.57;;;19.00;99.90;;;;;;5074512;28;20162;-62
2022/04/19 11:18:53;;;;;;;8.35;5.88;;;19.20;99.90;;;;;;5073057;28;20193;-62
2022/04/19 11:21:51;;;;;;;7.82;5.25;;;19.20;99.90;;;;;;5074617;28;20190;-62
2022/04/19 11:24:55;;;;;;;10.55;6.30;;;19.50;99.90;;;;;;5073092;28;20233;-62
2022/04/19 11:27:20;;;;;;;9.77;6.38;;;19.70;99.90;;;;;;5074592;28;20219;-63
2022/04/19 11:29:47;;;;;;;9.23;5.78;;;19.60;99.90;;;;;;5073306;28;20177;-62
2022/04/19 11:32:22;;;;;;;7.95;5.50;;;19.70;99.90;;;;;;5075125;28;20196;-62
2022/04/19 11:35:01;;;;;;;9.15;6.43;;;20.00;99.90;;;;;;5074397;28;20166;-62
2022/04/19 11:37:31;;;;;;;10.63;5.50;;;20.00;99.90;;;;;;5074374;28;20169;-62
2022/04/19 11:48:30;;;;;;;9.45;4.90;;;20.90;99.90;;;;;;5074508;28;20169;-62
2022/04/19 11:51:10;;;;;;;6.63;4.40;;;21.10;99.90;;;;;;5073801;28;20193;-63
2022/04/19 11:53:36;;;;;;;7.68;4.28;;;21.20;99.90;;;;;;5071675;28;20205;-63
2022/04/19 11:56:04;;;;;;;7.13;4.57;;;21.20;99.90;;;;;;5073661;28;20155;-63
2022/04/19 11:58:30;;;;;;;6.53;4.03;;;21.40;99.90;;;;;;5074249;28;20648;-63
2022/04/19 12:01:07;;;;;;;4.88;3.70;;;21.40;99.90;;;;;;5073911;28;20236;-63
2022/04/19 12:03:38;;;;;;;4.53;3.72;;;21.70;99.90;;;;;;5073566;28;20217;-63
2022/04/19 12:06:09;;;;;;;4.75;3.72;;;21.80;99.90;;;;;;5073687;28;20252;-62
2022/04/19 12:08:38;;;;;;;5.32;3.95;;;21.30;99.90;;;;;;5073649;28;20179;-63
2022/04/19 12:11:06;;;;;;;7.03;3.75;;;21.60;99.90;;;;;;5071977;28;20236;-63
2022/04/19 12:13:32;;;;;;;5.38;3.92;;;21.90;99.90;;;;;;5073570;28;20184;-63
2022/04/19 12:16:00;;;;;;;5.28;3.70;;;21.80;99.90;;;;;;5073929;28;20162;-63
2022/04/19 12:18:38;;;;;;;6.40;3.42;;;21.90;99.90;;;;;;5074068;28;20158;-62
2022/04/19 12:21:06;;;;;;;5.18;3.78;;;22.40;99.90;;;;;;5073425;28;20193;-62
2022/04/19 12:23:34;;;;;;;5.57;3.80;;;22.40;99.90;;;;;;5073698;28;20205;-62
2022/04/19 12:26:10;;;;;;;5.60;3.70;;;22.40;99.90;;;;;;5073308;28;20680;-62
2022/04/19 12:28:47;;;;;;;9.57;4.07;;;22.40;99.90;;;;;;5073695;28;20185;-62
2022/04/19 12:31:41;;;;;;;4.85;3.55;;;22.40;99.90;;;;;;5072088;28;20193;-63
2022/04/19 12:34:09;;;;;;;4.13;3.40;;;22.60;99.90;;;;;;5072201;28;20170;-63
2022/04/19 12:36:41;;;;;;;6.10;3.17;;;22.50;99.90;;;;;;5073676;28;20177;-61
2022/04/19 12:39:07;;;;;;;4.97;3.83;;;22.40;99.90;;;;;;5073160;28;20263;-60
2022/04/19 12:41:37;;;;;;;4.82;2.95;;;22.70;99.90;;;;;;5073008;28;20197;-61
2022/04/19 12:44:04;;;;;;;3.83;3.10;;;22.90;99.90;;;;;;5073339;28;20277;-60
2022/04/19 12:46:33;;;;;;;5.07;3.92;;;23.40;99.90;;;;;;5073268;28;20232;-60
2022/04/19 12:48:58;;;;;;;4.82;3.40;;;23.30;99.90;;;;;;5073279;28;20533;-61
2022/04/19 12:51:25;;;;;;;5.25;4.03;;;23.40;99.90;;;;;;5073862;28;20185;-61
2022/04/19 12:54:06;;;;;;;6.70;4.00;;;23.60;99.90;;;;;;5073750;28;20158;-60
2022/04/19 12:59:53;;;;;;;7.95;3.22;;;23.70;99.90;;;;;;5076015;28;20158;-60
2022/04/19 13:02:20;;;;;;;6.20;3.67;;;23.60;99.90;;;;;;5075390;28;20201;-60
2022/04/19 13:04:49;;;;;;;5.45;3.33;;;23.80;99.90;;;;;;5075802;28;20174;-60
2022/04/19 13:12:44;;;;;;;5.30;3.83;;;24.10;99.90;;;;;;5078054;28;20751;-61
2022/04/19 13:15:10;;;;;;;5.97;4.18;;;24.10;99.90;;;;;;5077767;28;20166;-61
2022/04/19 13:17:39;;;;;;;5.30;4.53;;;24.20;99.90;;;;;;5077413;28;20178;-61
2022/04/19 13:20:06;;;;;;;4.80;3.72;;;23.90;99.90;;;;;;5077372;28;20241;-62
2022/04/19 13:22:33;;;;;;;5.22;3.65;;;23.90;99.90;;;;;;5077131;28;20181;-62
2022/04/19 13:24:59;;;;;;;4.82;3.92;;;23.90;99.90;;;;;;5076878;28;20231;-62
2022/04/19 13:27:26;;;;;;;6.43;3.47;;;23.80;99.90;;;;;;5076468;28;20165;-63
2022/04/19 13:29:52;;;;;;;4.72;3.10;;;23.70;99.90;;;;;;5076869;28;20196;-62
2022/04/19 13:32:20;;;;;;;6.53;3.97;;;24.00;99.90;;;;;;5076582;28;20666;-62
2022/04/19 13:34:46;;;;;;;4.10;3.28;;;23.90;99.90;;;;;;5076693;28;20154;-63
2022/04/19 13:37:13;;;;;;;4.60;3.42;;;24.40;99.90;;;;;;5076448;28;20548;-61
2022/04/19 13:39:39;;;;;;;4.20;2.70;;;24.50;99.90;;;;;;5076565;28;20540;-62
2022/04/19 13:42:05;;;;;;;4.63;2.95;;;24.50;99.90;;;;;;5076470;28;20201;-68